Time;durP1;ratioP1;P1;durP2;ratioP2;P2;SDS_P1;SDS_P2;PMS_P1;PMS_P2;Temp;Humidity;BMP_temperature;BMP_pressure;BME280_temperature;BME280_humidity;BME280_pressure;Samples;Min_cycle;Max_cycle;Signal;HPM_P1;HPM_P2
2023/05/06 00:00:11;;;;;;;8.82;8.13;;;;;;;;;;5050016;28;20486;-55
2023/05/06 00:02:37;;;;;;;8.40;7.75;;;;;;;;;;5050127;28;20421;-55
2023/05/06 00:05:03;;;;;;;8.75;8.05;;;;;;;;;;5050084;28;20424;-55
2023/05/06 00:07:31;;;;;;;9.05;8.25;;;;;;;;;;5050183;28;20451;-55
2023/05/06 00:09:57;;;;;;;9.90;9.13;;;;;;;;;;5050082;28;20421;-55
2023/05/06 00:12:23;;;;;;;8.63;7.93;;;;;;;;;;5061284;28;20418;-56
2023/05/06 00:14:49;;;;;;;11.00;10.07;;;;;;;;;;5070014;28;20415;-55
2023/05/06 00:17:15;;;;;;;18.43;16.93;;;;;;;;;;5068181;28;20449;-55
2023/05/06 00:19:41;;;;;;;13.32;12.30;;;;;;;;;;5068562;28;20399;-55
2023/05/06 00:22:07;;;;;;;9.23;8.43;;;;;;;;;;5070286;28;20513;-54
2023/05/06 00:24:34;;;;;;;10.00;9.20;;;;;;;;;;5071760;28;20395;-54
2023/05/06 00:27:00;;;;;;;11.27;10.32;;;;;;;;;;5074084;28;20434;-54
2023/05/06 00:29:26;;;;;;;11.83;10.83;;;;;;;;;;5073828;28;20404;-55
2023/05/06 00:31:52;;;;;;;11.48;10.57;;;;;;;;;;5074216;28;20395;-52
2023/05/06 00:34:18;;;;;;;10.80;9.80;;;;;;;;;;5073820;28;20434;-52
2023/05/06 00:36:44;;;;;;;10.43;9.52;;;;;;;;;;5074089;28;20456;-52
2023/05/06 00:39:10;;;;;;;8.93;8.23;;;;;;;;;;5073828;28;20392;-53
2023/05/06 00:41:38;;;;;;;9.40;8.68;;;;;;;;;;5073909;28;20901;-52
2023/05/06 00:44:04;;;;;;;8.93;8.15;;;;;;;;;;5073822;28;20478;-52
2023/05/06 00:46:30;;;;;;;8.82;8.10;;;;;;;;;;5073708;28;20407;-53
2023/05/06 00:48:56;;;;;;;8.30;7.70;;;;;;;;;;5073633;28;20419;-53
2023/05/06 00:51:23;;;;;;;9.25;8.55;;;;;;;;;;5073710;28;20501;-53
2023/05/06 00:53:49;;;;;;;8.88;8.18;;;;;;;;;;5073730;28;20396;-53
2023/05/06 00:56:16;;;;;;;8.40;7.68;;;;;;;;;;5073491;28;20901;-53
2023/05/06 00:58:44;;;;;;;8.75;7.85;;;;;;;;;;5073518;28;20896;-53
2023/05/06 01:01:11;;;;;;;7.40;6.80;;;;;;;;;;5073401;28;20407;-53
2023/05/06 01:03:38;;;;;;;7.55;6.85;;;;;;;;;;5073611;28;20404;-53
2023/05/06 01:06:08;;;;;;;7.65;6.95;;;;;;;;;;5073593;28;20407;-53
2023/05/06 01:08:35;;;;;;;6.90;6.40;;;;;;;;;;5073500;28;20422;-53
2023/05/06 01:11:03;;;;;;;6.78;6.18;;;;;;;;;;5073300;28;20404;-53
2023/05/06 01:13:34;;;;;;;7.13;6.53;;;;;;;;;;5073252;28;20849;-53
2023/05/06 01:16:02;;;;;;;6.22;5.72;;;;;;;;;;5073256;28;20452;-53
2023/05/06 01:18:31;;;;;;;6.40;5.90;;;;;;;;;;5072860;28;20463;-53
2023/05/06 01:20:58;;;;;;;7.90;7.20;;;;;;;;;;5072892;28;21029;-53
2023/05/06 01:23:25;;;;;;;6.75;6.25;;;;;;;;;;5072935;28;20400;-53
2023/05/06 01:25:51;;;;;;;6.07;5.60;;;;;;;;;;5073079;28;20411;-53
2023/05/06 01:28:17;;;;;;;7.80;7.10;;;;;;;;;;5072982;28;20404;-53
2023/05/06 01:30:49;;;;;;;8.18;7.47;;;;;;;;;;5072564;28;20631;-53
2023/05/06 01:33:18;;;;;;;8.10;7.40;;;;;;;;;;5072552;28;20537;-53
2023/05/06 01:35:49;;;;;;;8.88;8.07;;;;;;;;;;5072030;28;20472;-53
2023/05/06 01:38:19;;;;;;;8.68;7.90;;;;;;;;;;5072840;28;20491;-53
2023/05/06 01:40:48;;;;;;;7.43;6.82;;;;;;;;;;5072857;28;20399;-53
2023/05/06 01:43:14;;;;;;;7.93;7.20;;;;;;;;;;5072594;28;20886;-53
2023/05/06 01:45:41;;;;;;;8.90;8.00;;;;;;;;;;5072740;28;20465;-54
2023/05/06 01:48:07;;;;;;;8.45;7.75;;;;;;;;;;5072843;28;20395;-54
2023/05/06 01:50:33;;;;;;;9.68;8.88;;;;;;;;;;5072604;28;20423;-52
2023/05/06 01:53:00;;;;;;;9.15;8.45;;;;;;;;;;5072700;28;20878;-52
2023/05/06 01:55:26;;;;;;;10.07;9.20;;;;;;;;;;5072491;28;20395;-55
2023/05/06 01:57:53;;;;;;;10.77;9.77;;;;;;;;;;5072789;28;20404;-54
2023/05/06 02:00:20;;;;;;;11.90;10.80;;;;;;;;;;5072476;28;20404;-54
2023/05/06 02:02:46;;;;;;;11.98;10.90;;;;;;;;;;5072389;28;20404;-53
2023/05/06 02:05:12;;;;;;;9.90;9.10;;;;;;;;;;5072218;28;20445;-54
2023/05/06 02:07:38;;;;;;;8.70;8.00;;;;;;;;;;5072436;28;20395;-54
2023/05/06 02:10:04;;;;;;;9.52;8.73;;;;;;;;;;5072271;28;20522;-54
2023/05/06 02:12:30;;;;;;;8.20;7.50;;;;;;;;;;5072190;28;20414;-54
2023/05/06 02:14:58;;;;;;;7.97;7.30;;;;;;;;;;5072214;28;20406;-56
2023/05/06 02:17:24;;;;;;;8.03;7.33;;;;;;;;;;5071973;28;20415;-54
2023/05/06 02:19:50;;;;;;;7.82;7.22;;;;;;;;;;5072178;28;20411;-54
2023/05/06 02:22:16;;;;;;;8.00;7.30;;;;;;;;;;5072003;28;20970;-54
2023/05/06 02:24:42;;;;;;;8.48;7.78;;;;;;;;;;5071846;28;20438;-54
2023/05/06 02:27:08;;;;;;;10.70;9.77;;;;;;;;;;5071971;28;20399;-53
2023/05/06 02:29:34;;;;;;;10.85;9.93;;;;;;;;;;5071745;28;20751;-54
2023/05/06 02:32:01;;;;;;;10.93;10.02;;;;;;;;;;5071861;28;20470;-52
2023/05/06 02:34:27;;;;;;;9.88;9.10;;;;;;;;;;5071503;28;20423;-52
2023/05/06 02:36:53;;;;;;;9.33;8.53;;;;;;;;;;5071897;28;20403;-53
2023/05/06 02:39:19;;;;;;;11.70;10.70;;;;;;;;;;5071724;28;20396;-52
2023/05/06 02:41:45;;;;;;;12.30;11.20;;;;;;;;;;5071852;28;20460;-52
2023/05/06 02:44:11;;;;;;;12.00;10.90;;;;;;;;;;5071611;28;20396;-54
2023/05/06 02:46:37;;;;;;;12.40;11.20;;;;;;;;;;5071608;28;20483;-53
2023/05/06 02:49:04;;;;;;;12.80;11.63;;;;;;;;;;5071472;28;20918;-54
2023/05/06 02:51:30;;;;;;;11.02;10.02;;;;;;;;;;5071481;28;20404;-54
2023/05/06 02:53:56;;;;;;;11.00;10.10;;;;;;;;;;5071498;28;20397;-54
2023/05/06 02:56:22;;;;;;;11.50;10.60;;;;;;;;;;5071358;28;20482;-54
2023/05/06 02:58:48;;;;;;;10.73;9.90;;;;;;;;;;5071409;28;20407;-54
2023/05/06 03:01:14;;;;;;;11.18;10.27;;;;;;;;;;5071273;28;20400;-52
2023/05/06 03:03:40;;;;;;;10.98;10.05;;;;;;;;;;5071374;28;20759;-53
2023/05/06 03:06:08;;;;;;;10.60;9.70;;;;;;;;;;5071337;28;20411;-53
2023/05/06 03:08:34;;;;;;;10.57;9.68;;;;;;;;;;5070992;28;20882;-53
2023/05/06 03:11:00;;;;;;;9.85;8.95;;;;;;;;;;5071151;28;20453;-52
2023/05/06 03:13:26;;;;;;;10.20;9.40;;;;;;;;;;5071052;28;20400;-53
2023/05/06 03:15:55;;;;;;;10.68;9.77;;;;;;;;;;5071246;28;20407;-53
2023/05/06 03:18:21;;;;;;;10.00;9.20;;;;;;;;;;5071135;28;20388;-53
2023/05/06 03:20:48;;;;;;;10.38;9.57;;;;;;;;;;5071069;28;20387;-53
2023/05/06 03:23:15;;;;;;;11.40;10.40;;;;;;;;;;5070925;28;20484;-53
2023/05/06 03:25:41;;;;;;;11.30;10.40;;;;;;;;;;5070810;28;20418;-53
2023/05/06 03:28:07;;;;;;;12.70;11.60;;;;;;;;;;5071106;28;20474;-53
2023/05/06 03:30:33;;;;;;;13.00;11.90;;;;;;;;;;5070866;28;20499;-53
2023/05/06 03:32:59;;;;;;;11.25;10.35;;;;;;;;;;5070604;28;20399;-53
2023/05/06 03:35:25;;;;;;;11.95;10.98;;;;;;;;;;5070758;28;20404;-53
2023/05/06 03:37:51;;;;;;;13.45;12.35;;;;;;;;;;5071043;28;20410;-53
2023/05/06 03:40:19;;;;;;;11.88;10.77;;;;;;;;;;5070727;28;20478;-53
2023/05/06 03:42:45;;;;;;;14.02;12.80;;;;;;;;;;5070704;28;20410;-53
2023/05/06 03:45:11;;;;;;;12.63;11.63;;;;;;;;;;5070931;28;20411;-55
2023/05/06 03:47:37;;;;;;;12.63;11.52;;;;;;;;;;5070737;28;20417;-55
2023/05/06 03:50:03;;;;;;;12.68;11.60;;;;;;;;;;5070681;28;20791;-54
2023/05/06 03:52:29;;;;;;;17.05;15.55;;;;;;;;;;5070519;28;20407;-55
2023/05/06 03:54:55;;;;;;;17.45;15.90;;;;;;;;;;5070571;28;20402;-54
2023/05/06 03:57:23;;;;;;;14.60;13.30;;;;;;;;;;5070628;28;20407;-54
2023/05/06 03:59:49;;;;;;;14.77;13.57;;;;;;;;;;5070207;28;20498;-55
2023/05/06 04:02:15;;;;;;;15.23;13.98;;;;;;;;;;5070504;28;20924;-54
2023/05/06 04:04:41;;;;;;;15.82;14.40;;;;;;;;;;5070556;28;20453;-55
2023/05/06 04:07:07;;;;;;;14.63;13.32;;;;;;;;;;5070558;28;20411;-54
2023/05/06 04:09:33;;;;;;;14.55;13.18;;;;;;;;;;5070421;28;20429;-54
2023/05/06 04:12:01;;;;;;;13.88;12.73;;;;;;;;;;5070527;28;20869;-54
2023/05/06 04:14:28;;;;;;;15.90;14.60;;;;;;;;;;5070484;28;20458;-54
2023/05/06 04:16:54;;;;;;;13.48;12.38;;;;;;;;;;5070588;28;20415;-54
2023/05/06 04:19:20;;;;;;;14.68;13.38;;;;;;;;;;5070531;28;20403;-54
2023/05/06 04:21:46;;;;;;;14.55;13.25;;;;;;;;;;5070105;28;20396;-54
2023/05/06 04:24:14;;;;;;;13.82;12.63;;;;;;;;;;5070094;28;20475;-59
2023/05/06 04:26:40;;;;;;;14.23;13.13;;;;;;;;;;5070372;28;20410;-54
2023/05/06 04:29:06;;;;;;;13.95;12.75;;;;;;;;;;5070420;28;20495;-55
2023/05/06 04:31:34;;;;;;;15.27;13.98;;;;;;;;;;5070290;28;20406;-54
2023/05/06 04:34:00;;;;;;;13.47;12.37;;;;;;;;;;5070303;28;20410;-54
2023/05/06 04:36:26;;;;;;;15.50;14.13;;;;;;;;;;5069919;28;20395;-54
2023/05/06 04:38:52;;;;;;;14.93;13.63;;;;;;;;;;5070164;28;20491;-54
2023/05/06 04:41:19;;;;;;;14.25;13.10;;;;;;;;;;5070268;28;20457;-55
2023/05/06 04:43:45;;;;;;;13.40;12.30;;;;;;;;;;5070178;28;20445;-55
2023/05/06 04:46:11;;;;;;;14.93;13.63;;;;;;;;;;5069985;28;20405;-55
2023/05/06 04:48:38;;;;;;;14.60;13.40;;;;;;;;;;5070055;28;20396;-54
2023/05/06 04:51:04;;;;;;;15.70;14.40;;;;;;;;;;5070232;28;20438;-54
2023/05/06 04:53:30;;;;;;;15.23;13.93;;;;;;;;;;5070029;28;20451;-55
2023/05/06 04:55:56;;;;;;;15.93;14.43;;;;;;;;;;5069985;28;20894;-54
2023/05/06 04:58:23;;;;;;;15.25;13.95;;;;;;;;;;5070180;28;20434;-54
2023/05/06 05:00:48;;;;;;;15.07;13.77;;;;;;;;;;5069930;28;20400;-55
2023/05/06 05:03:14;;;;;;;15.30;14.00;;;;;;;;;;5069879;28;20399;-55
2023/05/06 05:05:42;;;;;;;15.82;14.43;;;;;;;;;;5069853;28;20841;-54
2023/05/06 05:08:10;;;;;;;14.70;13.50;;;;;;;;;;5069977;28;20415;-55
2023/05/06 05:10:36;;;;;;;15.32;14.02;;;;;;;;;;5069854;28;20565;-55
2023/05/06 05:13:02;;;;;;;15.88;14.57;;;;;;;;;;5073465;28;20948;-55
2023/05/06 05:15:28;;;;;;;14.98;13.75;;;;;;;;;;5073383;28;20438;-54
2023/05/06 05:17:54;;;;;;;14.90;13.63;;;;;;;;;;5073357;28;20391;-55
2023/05/06 05:20:20;;;;;;;16.02;14.65;;;;;;;;;;5073530;28;20754;-54
2023/05/06 05:22:48;;;;;;;17.15;15.65;;;;;;;;;;5073144;28;20434;-53
2023/05/06 05:25:14;;;;;;;19.30;17.60;;;;;;;;;;5073011;28;20967;-54
2023/05/06 05:27:41;;;;;;;19.30;17.60;;;;;;;;;;5073096;28;20414;-53
2023/05/06 05:30:08;;;;;;;19.60;17.95;;;;;;;;;;5073206;28;20821;-53
2023/05/06 05:32:34;;;;;;;19.77;18.05;;;;;;;;;;5073097;28;20441;-53
2023/05/06 05:35:00;;;;;;;18.00;16.50;;;;;;;;;;5072898;28;20438;-53
2023/05/06 05:37:26;;;;;;;17.53;16.10;;;;;;;;;;5072905;28;20822;-53
2023/05/06 05:39:53;;;;;;;16.95;15.43;;;;;;;;;;5072890;28;20411;-53
2023/05/06 05:42:19;;;;;;;17.35;15.85;;;;;;;;;;5072975;28;20403;-53
2023/05/06 05:44:45;;;;;;;17.95;16.45;;;;;;;;;;5072716;28;20484;-53
2023/05/06 05:47:11;;;;;;;16.90;15.50;;;;;;;;;;5072867;28;20491;-53
2023/05/06 05:49:37;;;;;;;17.50;16.00;;;;;;;;;;5072717;28;20411;-53
2023/05/06 05:52:04;;;;;;;16.42;14.93;;;;;;;;;;5072870;28;20890;-53
2023/05/06 05:54:30;;;;;;;16.83;15.33;;;;;;;;;;5072491;28;20396;-53
2023/05/06 05:56:57;;;;;;;17.88;16.23;;;;;;;;;;5072721;28;20802;-53
2023/05/06 05:59:23;;;;;;;15.70;14.30;;;;;;;;;;5072671;28;20404;-53
2023/05/06 06:01:49;;;;;;;16.67;15.27;;;;;;;;;;5072633;28;20411;-53
2023/05/06 06:04:15;;;;;;;15.80;14.43;;;;;;;;;;5072393;28;20403;-53
2023/05/06 06:06:41;;;;;;;17.30;15.55;;;;;;;;;;5072405;28;20819;-53
2023/05/06 06:09:08;;;;;;;16.35;14.75;;;;;;;;;;5072370;28;20419;-53
2023/05/06 06:11:34;;;;;;;16.50;15.00;;;;;;;;;;5072476;28;20404;-53
2023/05/06 06:14:02;;;;;;;15.00;13.73;;;;;;;;;;5072331;28;20480;-53
2023/05/06 06:16:28;;;;;;;16.20;14.70;;;;;;;;;;5072130;28;20770;-54
2023/05/06 06:18:54;;;;;;;14.75;13.52;;;;;;;;;;5072144;28;20395;-53
2023/05/06 06:21:20;;;;;;;15.63;14.27;;;;;;;;;;5072335;28;20418;-54
2023/05/06 06:23:46;;;;;;;16.40;14.90;;;;;;;;;;5071573;28;20482;-53
2023/05/06 06:26:12;;;;;;;16.50;15.00;;;;;;;;;;5072005;28;20396;-53
2023/05/06 06:28:38;;;;;;;15.83;14.43;;;;;;;;;;5071895;28;20478;-54
2023/05/06 06:31:05;;;;;;;15.07;13.73;;;;;;;;;;5072106;28;20423;-53
2023/05/06 06:33:31;;;;;;;14.75;13.45;;;;;;;;;;5071653;28;20422;-54
2023/05/06 06:35:57;;;;;;;14.68;13.38;;;;;;;;;;5071666;28;20774;-53
2023/05/06 06:38:24;;;;;;;16.45;15.00;;;;;;;;;;5071732;28;20430;-53
2023/05/06 06:40:50;;;;;;;17.30;15.70;;;;;;;;;;5071752;28;20399;-54
2023/05/06 06:43:18;;;;;;;17.23;15.63;;;;;;;;;;5071614;28;20480;-55
2023/05/06 06:45:46;;;;;;;20.48;18.55;;;;;;;;;;5071474;28;20395;-54
2023/05/06 06:48:13;;;;;;;18.58;16.95;;;;;;;;;;5071347;28;20433;-54
2023/05/06 06:50:39;;;;;;;19.52;17.75;;;;;;;;;;5071300;28;20993;-54
2023/05/06 06:53:05;;;;;;;19.70;18.00;;;;;;;;;;5071724;28;20482;-54
2023/05/06 06:55:32;;;;;;;23.85;21.48;;;;;;;;;;5071384;28;20392;-53
2023/05/06 06:57:58;;;;;;;24.67;22.23;;;;;;;;;;5071438;28;20491;-54
2023/05/06 07:00:24;;;;;;;22.20;20.13;;;;;;;;;;5071431;28;20449;-54
2023/05/06 07:02:50;;;;;;;18.70;17.03;;;;;;;;;;5071429;28;20411;-53
2023/05/06 07:05:17;;;;;;;19.00;17.20;;;;;;;;;;5071314;28;20441;-53
2023/05/06 07:07:43;;;;;;;16.00;14.55;;;;;;;;;;5071186;28;21042;-53
2023/05/06 07:10:10;;;;;;;14.60;13.30;;;;;;;;;;5071193;28;20510;-53
2023/05/06 07:12:36;;;;;;;15.25;13.75;;;;;;;;;;5071172;28;20399;-54
2023/05/06 07:15:05;;;;;;;14.23;12.95;;;;;;;;;;5071149;28;20396;-54
2023/05/06 07:17:31;;;;;;;13.10;11.77;;;;;;;;;;5070940;28;20930;-55
2023/05/06 07:19:57;;;;;;;12.32;11.23;;;;;;;;;;5070924;28;20395;-54
2023/05/06 07:22:24;;;;;;;15.10;13.70;;;;;;;;;;5070979;28;20453;-54
2023/05/06 07:24:50;;;;;;;14.23;13.02;;;;;;;;;;5070844;28;20407;-54
2023/05/06 07:27:16;;;;;;;15.98;14.50;;;;;;;;;;5070943;28;20438;-55
2023/05/06 07:29:42;;;;;;;21.13;19.05;;;;;;;;;;5070835;28;20450;-55
2023/05/06 07:32:09;;;;;;;19.75;17.95;;;;;;;;;;5069229;28;20397;-55
2023/05/06 07:34:35;;;;;;;22.30;20.20;;;;;;;;;;5068715;28;20790;-55
2023/05/06 07:37:02;;;;;;;22.52;20.52;;;;;;;;;;5070985;28;20407;-54
2023/05/06 07:39:30;;;;;;;24.95;22.45;;;;;;;;;;5070806;28;20406;-54
2023/05/06 07:41:56;;;;;;;23.88;21.48;;;;;;;;;;5070731;28;20407;-55
2023/05/06 07:44:22;;;;;;;24.70;22.43;;;;;;;;;;5070860;28;20407;-53
2023/05/06 07:46:48;;;;;;;24.23;21.92;;;;;;;;;;5070580;28;20490;-58
2023/05/06 07:49:14;;;;;;;24.02;21.75;;;;;;;;;;5068648;28;20411;-53
2023/05/06 07:51:41;;;;;;;26.65;24.13;;;;;;;;;;5070650;28;20838;-53
2023/05/06 07:54:07;;;;;;;26.98;24.30;;;;;;;;;;5070676;28;20411;-54
2023/05/06 07:56:35;;;;;;;26.05;23.52;;;;;;;;;;5070667;28;20470;-53
2023/05/06 07:59:00;;;;;;;25.00;22.65;;;;;;;;;;5070553;28;20898;-53
2023/05/06 08:01:28;;;;;;;23.73;21.33;;;;;;;;;;5070627;28;20414;-54
2023/05/06 08:03:54;;;;;;;21.17;19.17;;;;;;;;;;5070309;28;20411;-54
2023/05/06 08:06:20;;;;;;;20.95;18.85;;;;;;;;;;5070676;28;20499;-54
2023/05/06 08:08:46;;;;;;;22.07;20.03;;;;;;;;;;5070248;28;20897;-53
2023/05/06 08:11:12;;;;;;;22.73;20.65;;;;;;;;;;5070465;28;20412;-56
2023/05/06 08:13:39;;;;;;;23.87;21.63;;;;;;;;;;5070567;28;20448;-55
2023/05/06 08:16:06;;;;;;;23.13;20.88;;;;;;;;;;5070535;28;20977;-59
2023/05/06 08:18:32;;;;;;;21.90;19.80;;;;;;;;;;5070572;28;20410;-59
2023/05/06 08:20:58;;;;;;;22.58;20.48;;;;;;;;;;5070327;28;20399;-59
2023/05/06 08:23:24;;;;;;;21.27;19.27;;;;;;;;;;5070382;28;20403;-55
2023/05/06 08:25:50;;;;;;;18.80;16.98;;;;;;;;;;5070426;28;20403;-55
2023/05/06 08:28:16;;;;;;;19.02;17.25;;;;;;;;;;5070211;28;20896;-58
2023/05/06 08:30:46;;;;;;;17.50;15.88;;;;;;;;;;5070121;28;20408;-59
2023/05/06 08:33:12;;;;;;;17.27;15.57;;;;;;;;;;5070140;28;20490;-59
2023/05/06 08:35:38;;;;;;;15.20;13.80;;;;;;;;;;5069736;28;20881;-59
2023/05/06 08:38:04;;;;;;;25.98;23.67;;;;;;;;;;5070491;28;20431;-60
2023/05/06 08:40:32;;;;;;;15.97;14.47;;;;;;;;;;5070372;28;20462;-60
2023/05/06 08:42:59;;;;;;;14.43;13.02;;;;;;;;;;5068233;28;20404;-58
2023/05/06 08:45:26;;;;;;;12.95;11.80;;;;;;;;;;5049083;28;20417;-58
2023/05/06 08:47:53;;;;;;;13.60;12.35;;;;;;;;;;5050048;28;20409;-59
2023/05/06 08:50:19;;;;;;;13.55;12.25;;;;;;;;;;5053574;28;20421;-58
2023/05/06 08:52:47;;;;;;;12.75;11.65;;;;;;;;;;5052965;28;20413;-58
2023/05/06 08:55:13;;;;;;;11.80;10.63;;;;;;;;;;5053334;28;20412;-58
2023/05/06 08:57:39;;;;;;;11.60;10.60;;;;;;;;;;5053143;28;20476;-58
2023/05/06 09:00:09;;;;;;;12.57;11.38;;;;;;;;;;5049446;28;20918;-58
2023/05/06 09:02:35;;;;;;;12.17;11.10;;;;;;;;;;5053480;28;20494;-60
2023/05/06 09:05:03;;;;;;;13.27;11.98;;;;;;;;;;5052982;28;21467;-60
2023/05/06 09:07:29;;;;;;;11.88;10.82;;;;;;;;;;5053249;28;20409;-60
2023/05/06 09:09:55;;;;;;;12.73;11.52;;;;;;;;;;5052872;28;20413;-60
2023/05/06 09:12:23;;;;;;;11.20;10.20;;;;;;;;;;5053216;28;20421;-60
2023/05/06 09:14:50;;;;;;;11.38;10.27;;;;;;;;;;5053108;28;20402;-60
2023/05/06 09:17:27;;;;;;;11.45;10.45;;;;;;;;;;5053152;28;20412;-60
2023/05/06 09:19:55;;;;;;;14.13;12.73;;;;;;;;;;5052857;28;20888;-60
2023/05/06 09:22:23;;;;;;;11.32;10.32;;;;;;;;;;5051432;28;20401;-60
2023/05/06 09:24:55;;;;;;;11.82;10.70;;;;;;;;;;5053246;28;20887;-60
2023/05/06 09:27:22;;;;;;;11.77;10.68;;;;;;;;;;5053392;28;20398;-59
2023/05/06 09:29:59;;;;;;;12.05;10.52;;;;;;;;;;5053194;28;20775;-59
2023/05/06 09:32:25;;;;;;;11.38;10.27;;;;;;;;;;5053216;28;20760;-60
2023/05/06 09:34:51;;;;;;;10.85;9.75;;;;;;;;;;5053059;28;20409;-60
2023/05/06 09:37:19;;;;;;;10.68;9.68;;;;;;;;;;5065059;28;20475;-60
2023/05/06 09:39:47;;;;;;;9.60;8.70;;;;;;;;;;5072826;28;20807;-60
2023/05/06 09:42:13;;;;;;;9.73;8.82;;;;;;;;;;5072970;28;20881;-60
2023/05/06 09:44:39;;;;;;;10.45;8.93;;;;;;;;;;5072905;28;20392;-60
2023/05/06 09:47:05;;;;;;;10.10;9.10;;;;;;;;;;5072694;28;20403;-60
2023/05/06 09:49:31;;;;;;;9.18;8.15;;;;;;;;;;5069183;28;20408;-59
2023/05/06 09:51:57;;;;;;;9.57;8.57;;;;;;;;;;5072546;28;20395;-59
2023/05/06 09:54:24;;;;;;;9.23;8.33;;;;;;;;;;5072599;28;20422;-59
2023/05/06 09:56:51;;;;;;;9.93;8.93;;;;;;;;;;5071835;28;20409;-59
2023/05/06 09:59:19;;;;;;;11.23;10.23;;;;;;;;;;5072419;28;20899;-60
2023/05/06 10:01:45;;;;;;;12.47;11.37;;;;;;;;;;5072486;28;20492;-60
2023/05/06 10:04:12;;;;;;;9.65;8.75;;;;;;;;;;5072118;28;20400;-60
2023/05/06 10:06:40;;;;;;;9.85;8.88;;;;;;;;;;5072467;28;20479;-59
2023/05/06 10:09:06;;;;;;;9.70;8.80;;;;;;;;;;5072203;28;20408;-59
2023/05/06 10:11:33;;;;;;;32.60;29.33;;;;;;;;;;5072193;28;20458;-60
2023/05/06 10:14:00;;;;;;;14.25;12.85;;;;;;;;;;5072193;28;20474;-59
2023/05/06 10:16:27;;;;;;;9.50;8.60;;;;;;;;;;5072328;28;20399;-60
2023/05/06 10:18:54;;;;;;;9.57;8.57;;;;;;;;;;5072111;28;20411;-60
2023/05/06 10:21:21;;;;;;;9.50;8.60;;;;;;;;;;5072112;28;20403;-60
2023/05/06 10:23:51;;;;;;;11.57;10.48;;;;;;;;;;5071709;28;20394;-60
2023/05/06 10:26:18;;;;;;;9.90;9.10;;;;;;;;;;5072168;28;20410;-60
2023/05/06 10:28:48;;;;;;;10.87;9.77;;;;;;;;;;5072040;28;20428;-60
2023/05/06 10:31:15;;;;;;;9.40;8.50;;;;;;;;;;5071613;28;21073;-60
2023/05/06 10:33:44;;;;;;;9.60;8.60;;;;;;;;;;5071517;28;20498;-60
2023/05/06 10:36:13;;;;;;;8.90;8.00;;;;;;;;;;5071452;28;20418;-60
2023/05/06 10:38:41;;;;;;;28.73;25.92;;;;;;;;;;5071566;28;20445;-60
2023/05/06 10:41:07;;;;;;;9.95;8.95;;;;;;;;;;5071647;28;20405;-60
2023/05/06 10:43:34;;;;;;;13.48;12.27;;;;;;;;;;5071669;28;20406;-59
2023/05/06 10:46:01;;;;;;;9.50;8.60;;;;;;;;;;5069154;28;20426;-60
2023/05/06 10:48:29;;;;;;;9.07;8.13;;;;;;;;;;5071190;28;20396;-59
2023/05/06 10:51:13;;;;;;;10.30;9.30;;;;;;;;;;5071236;28;20790;-60
2023/05/06 10:53:55;;;;;;;26.05;23.33;;;;;;;;;;5071248;28;20838;-59
2023/05/06 10:56:21;;;;;;;8.95;8.13;;;;;;;;;;5071164;28;20865;-60
2023/05/06 10:58:47;;;;;;;9.23;8.27;;;;;;;;;;5070969;28;20411;-59
2023/05/06 11:01:14;;;;;;;8.52;7.72;;;;;;;;;;5071087;28;20392;-60
2023/05/06 11:03:42;;;;;;;8.75;7.05;;;;;;;;;;5071018;28;20902;-60
2023/05/06 11:06:08;;;;;;;7.22;6.38;;;;;;;;;;5071021;28;20400;-60
2023/05/06 11:08:34;;;;;;;7.47;6.77;;;;;;;;;;5071155;28;20761;-59
2023/05/06 11:11:03;;;;;;;7.57;6.85;;;;;;;;;;5070701;28;20416;-60
2023/05/06 11:13:33;;;;;;;8.90;8.02;;;;;;;;;;5071076;28;20399;-59
2023/05/06 11:16:01;;;;;;;8.83;7.93;;;;;;;;;;5071019;28;20407;-59
2023/05/06 11:18:42;;;;;;;8.85;7.85;;;;;;;;;;5070866;28;20465;-60
2023/05/06 11:21:26;;;;;;;7.00;6.30;;;;;;;;;;5068271;28;20868;-59
2023/05/06 11:24:10;;;;;;;7.20;6.50;;;;;;;;;;5070751;28;20372;-59
2023/05/06 11:26:36;;;;;;;7.10;6.40;;;;;;;;;;5070811;28;20499;-59
2023/05/06 11:29:03;;;;;;;9.00;7.72;;;;;;;;;;5070403;28;20449;-59
2023/05/06 11:31:29;;;;;;;9.50;7.05;;;;;;;;;;5070681;28;20415;-59
2023/05/06 11:33:58;;;;;;;7.97;7.18;;;;;;;;;;5070281;28;20439;-59
2023/05/06 11:36:24;;;;;;;7.45;6.70;;;;;;;;;;5070511;28;20416;-60
2023/05/06 11:38:52;;;;;;;10.35;7.90;;;;;;;;;;5070583;28;20426;-61
2023/05/06 11:41:19;;;;;;;7.70;6.95;;;;;;;;;;5070469;28;20408;-61
2023/05/06 11:43:45;;;;;;;8.65;7.47;;;;;;;;;;5070207;28;20404;-61
2023/05/06 11:46:11;;;;;;;9.93;8.80;;;;;;;;;;5070356;28;20410;-61
2023/05/06 11:48:37;;;;;;;9.82;8.57;;;;;;;;;;5070489;28;20392;-61
2023/05/06 11:51:03;;;;;;;10.93;9.20;;;;;;;;;;5070215;28;20778;-61
2023/05/06 11:53:30;;;;;;;9.60;8.60;;;;;;;;;;5070214;28;20445;-58
2023/05/06 11:55:56;;;;;;;9.82;8.88;;;;;;;;;;5070249;28;20392;-59
2023/05/06 11:58:25;;;;;;;9.35;8.35;;;;;;;;;;5069588;28;20897;-61
2023/05/06 12:00:52;;;;;;;8.98;8.05;;;;;;;;;;5070330;28;20399;-61
2023/05/06 12:03:18;;;;;;;9.57;8.57;;;;;;;;;;5069858;28;20447;-60
2023/05/06 12:05:46;;;;;;;10.02;8.95;;;;;;;;;;5068184;28;20408;-61
2023/05/06 12:08:13;;;;;;;9.23;8.32;;;;;;;;;;5070091;28;20434;-61
2023/05/06 12:10:39;;;;;;;8.90;8.00;;;;;;;;;;5070017;28;20407;-61
2023/05/06 12:13:05;;;;;;;11.17;9.40;;;;;;;;;;5069924;28;20422;-61
2023/05/06 12:15:33;;;;;;;10.55;9.45;;;;;;;;;;5070045;28;20410;-61
2023/05/06 12:17:59;;;;;;;9.27;8.15;;;;;;;;;;5069785;28;20465;-61
2023/05/06 12:20:26;;;;;;;9.75;8.63;;;;;;;;;;5070993;28;20395;-61
2023/05/06 12:23:04;;;;;;;9.95;8.68;;;;;;;;;;5074169;28;20399;-61
2023/05/06 12:25:31;;;;;;;10.40;9.30;;;;;;;;;;5074246;28;20472;-61
2023/05/06 12:27:57;;;;;;;11.05;8.65;;;;;;;;;;5074105;28;20404;-61
2023/05/06 12:30:30;;;;;;;9.60;8.60;;;;;;;;;;5073738;28;20415;-61
2023/05/06 12:32:57;;;;;;;10.00;8.65;;;;;;;;;;5073833;28;20395;-60
2023/05/06 12:35:24;;;;;;;11.27;9.70;;;;;;;;;;5073745;28;20901;-61
2023/05/06 12:37:50;;;;;;;9.57;8.67;;;;;;;;;;5073944;28;20490;-61
2023/05/06 12:40:16;;;;;;;8.15;6.82;;;;;;;;;;5073690;28;20438;-61
2023/05/06 12:42:42;;;;;;;7.30;6.60;;;;;;;;;;5073782;28;20410;-61
2023/05/06 12:45:15;;;;;;;7.80;7.00;;;;;;;;;;5073443;28;20403;-60
2023/05/06 12:47:51;;;;;;;6.30;5.53;;;;;;;;;;5073762;28;20457;-60
2023/05/06 12:50:31;;;;;;;6.93;6.20;;;;;;;;;;5073512;28;20423;-60
2023/05/06 12:52:57;;;;;;;7.85;6.50;;;;;;;;;;5072789;28;20414;-60
2023/05/06 12:55:24;;;;;;;6.15;5.55;;;;;;;;;;5073422;28;20403;-60
2023/05/06 12:57:54;;;;;;;6.82;5.47;;;;;;;;;;5073617;28;20445;-60
2023/05/06 13:00:20;;;;;;;7.13;5.05;;;;;;;;;;5073318;28;20392;-61
2023/05/06 13:02:46;;;;;;;15.75;11.95;;;;;;;;;;5073302;28;20434;-60
2023/05/06 13:05:13;;;;;;;7.05;6.05;;;;;;;;;;5072843;28;20483;-60
2023/05/06 13:07:40;;;;;;;5.67;4.30;;;;;;;;;;5073030;28;20404;-60
2023/05/06 13:10:07;;;;;;;6.45;5.13;;;;;;;;;;5073034;28;20828;-60
2023/05/06 13:12:33;;;;;;;5.38;4.78;;;;;;;;;;5073305;28;20478;-57
2023/05/06 13:14:59;;;;;;;5.63;5.03;;;;;;;;;;5066347;28;20403;-56
2023/05/06 13:17:25;;;;;;;5.72;5.00;;;;;;;;;;5072612;28;20400;-57
2023/05/06 13:19:52;;;;;;;7.43;5.90;;;;;;;;;;5072894;28;20395;-56
2023/05/06 13:22:18;;;;;;;7.65;5.68;;;;;;;;;;5072567;28;20391;-56
2023/05/06 13:24:46;;;;;;;6.80;5.33;;;;;;;;;;5074160;28;20207;-56
2023/05/06 13:27:12;;;;;;;8.07;5.47;;;;;;;;;;5073797;28;20199;-59
2023/05/06 13:29:38;;;;;;;6.60;5.90;;;;;;;;;;5074073;28;20784;-59
2023/05/06 13:32:04;;;;;;;8.20;6.07;;;;;;;;;;5072529;28;20196;-59
2023/05/06 13:34:30;;;;;;;6.30;5.70;;;;;;;;;;5073547;28;20288;-59
2023/05/06 13:36:56;;;;;;;6.95;6.25;;;;;;;;;;5072418;28;20410;-59
2023/05/06 13:39:23;;;;;;;6.60;6.00;;;;;;;;;;5072288;28;20857;-58
2023/05/06 13:41:50;;;;;;;6.72;5.80;;;;;;;;;;5072347;28;20404;-60
2023/05/06 13:44:16;;;;;;;7.07;5.63;;;;;;;;;;5072133;28;20494;-59
2023/05/06 13:46:42;;;;;;;7.57;6.50;;;;;;;;;;5072507;28;20399;-59
2023/05/06 13:49:08;;;;;;;6.78;5.70;;;;;;;;;;5072311;28;20403;-59
2023/05/06 13:51:34;;;;;;;6.20;5.53;;;;;;;;;;5072067;28;20419;-59
2023/05/06 13:54:00;;;;;;;7.00;5.27;;;;;;;;;;5072073;28;20460;-61
2023/05/06 13:56:26;;;;;;;7.45;6.32;;;;;;;;;;5071873;28;20435;-58
2023/05/06 13:58:53;;;;;;;8.15;7.32;;;;;;;;;;5068509;28;20404;-58
2023/05/06 14:01:20;;;;;;;8.07;6.90;;;;;;;;;;5072314;28;20493;-57
2023/05/06 14:03:46;;;;;;;8.25;7.45;;;;;;;;;;5072038;28;20396;-56
2023/05/06 14:06:12;;;;;;;9.07;7.30;;;;;;;;;;5071903;28;20395;-56
2023/05/06 14:08:38;;;;;;;7.53;6.65;;;;;;;;;;5072106;28;20403;-57
2023/05/06 14:11:04;;;;;;;7.30;6.40;;;;;;;;;;5072156;28;20417;-57
2023/05/06 14:13:30;;;;;;;7.50;5.80;;;;;;;;;;5073163;28;20203;-56
2023/05/06 14:15:58;;;;;;;7.10;5.60;;;;;;;;;;5073167;28;20199;-56
2023/05/06 14:18:25;;;;;;;8.25;6.70;;;;;;;;;;5069867;28;20404;-56
2023/05/06 14:20:51;;;;;;;7.50;5.93;;;;;;;;;;5071865;28;20471;-57
2023/05/06 14:23:17;;;;;;;6.30;5.70;;;;;;;;;;5071073;28;20457;-60
2023/05/06 14:25:43;;;;;;;5.80;5.20;;;;;;;;;;5071490;28;20415;-56